sensor_id;sensor_type;location;lat;lon;timestamp;pressure;altitude;pressure_sealevel;temperature;humidity
39769;BME280;38939;47.824;14.642;2023-03-15T00:00:57;96004.59;;;7.27;61.59
39769;BME280;38939;47.824;14.642;2023-03-15T00:01:59;95997.00;;;7.26;60.89
39769;BME280;38939;47.824;14.642;2023-03-15T00:03:01;96006.78;;;7.24;60.80
39769;BME280;38939;47.824;14.642;2023-03-15T00:04:05;96006.00;;;7.23;61.02
39769;BME280;38939;47.824;14.642;2023-03-15T00:05:09;96014.38;;;7.25;60.09
39769;BME280;38939;47.824;14.642;2023-03-15T00:06:13;96011.19;;;7.23;58.86
39769;BME280;38939;47.824;14.642;2023-03-15T00:07:15;96004.38;;;7.22;59.51
39769;BME280;38939;47.824;14.642;2023-03-15T00:08:17;96004.59;;;7.20;59.43
39769;BME280;38939;47.824;14.642;2023-03-15T00:09:19;96006.38;;;7.20;59.66
39769;BME280;38939;47.824;14.642;2023-03-15T00:10:22;96013.16;;;7.21;58.83
39769;BME280;38939;47.824;14.642;2023-03-15T00:11:24;96025.94;;;7.22;59.71
39769;BME280;38939;47.824;14.642;2023-03-15T00:12:26;96023.75;;;7.19;59.91
39769;BME280;38939;47.824;14.642;2023-03-15T00:13:28;96022.53;;;7.22;60.98
39769;BME280;38939;47.824;14.642;2023-03-15T00:14:30;96015.97;;;7.19;60.19
39769;BME280;38939;47.824;14.642;2023-03-15T00:15:32;96021.94;;;7.20;60.10
39769;BME280;38939;47.824;14.642;2023-03-15T00:16:33;96017.56;;;7.20;60.64
39769;BME280;38939;47.824;14.642;2023-03-15T00:17:35;96019.94;;;7.22;61.44
39769;BME280;38939;47.824;14.642;2023-03-15T00:18:37;96023.53;;;7.21;61.04
39769;BME280;38939;47.824;14.642;2023-03-15T00:19:39;96028.72;;;7.21;61.04
39769;BME280;38939;47.824;14.642;2023-03-15T00:20:41;96024.53;;;7.20;60.72
39769;BME280;38939;47.824;14.642;2023-03-15T00:21:42;96022.75;;;7.20;60.91
39769;BME280;38939;47.824;14.642;2023-03-15T00:22:44;96025.94;;;7.22;61.43
39769;BME280;38939;47.824;14.642;2023-03-15T00:23:46;96020.75;;;7.22;61.61
39769;BME280;38939;47.824;14.642;2023-03-15T00:24:48;96016.38;;;7.23;61.26
39769;BME280;38939;47.824;14.642;2023-03-15T00:25:51;96017.34;;;7.22;61.73
39769;BME280;38939;47.824;14.642;2023-03-15T00:26:53;96007.97;;;7.21;61.10
39769;BME280;38939;47.824;14.642;2023-03-15T00:27:55;96017.75;;;7.19;61.63
39769;BME280;38939;47.824;14.642;2023-03-15T00:28:56;96014.16;;;7.20;62.39
39769;BME280;38939;47.824;14.642;2023-03-15T00:29:58;96008.97;;;7.20;61.17
39769;BME280;38939;47.824;14.642;2023-03-15T00:31:03;96015.38;;;7.17;60.38
39769;BME280;38939;47.824;14.642;2023-03-15T00:32:05;96014.38;;;7.18;61.27
39769;BME280;38939;47.824;14.642;2023-03-15T00:33:08;96017.16;;;7.17;61.77
39769;BME280;38939;47.824;14.642;2023-03-15T00:34:10;96015.16;;;7.19;62.40
39769;BME280;38939;47.824;14.642;2023-03-15T00:35:14;96016.16;;;7.18;62.04
39769;BME280;38939;47.824;14.642;2023-03-15T00:36:19;96019.56;;;7.18;60.62
39769;BME280;38939;47.824;14.642;2023-03-15T00:37:24;96023.94;;;7.18;62.28
39769;BME280;38939;47.824;14.642;2023-03-15T00:38:26;96035.13;;;7.18;62.08
39769;BME280;38939;47.824;14.642;2023-03-15T00:39:27;96029.94;;;7.18;61.94
39769;BME280;38939;47.824;14.642;2023-03-15T00:40:29;96030.72;;;7.19;62.62
39769;BME280;38939;47.824;14.642;2023-03-15T00:41:31;96037.31;;;7.21;63.25
39769;BME280;38939;47.824;14.642;2023-03-15T00:42:33;96036.50;;;7.21;62.34
39769;BME280;38939;47.824;14.642;2023-03-15T00:43:35;96035.72;;;7.20;62.81
39769;BME280;38939;47.824;14.642;2023-03-15T00:44:37;96032.13;;;7.21;62.34
39769;BME280;38939;47.824;14.642;2023-03-15T00:45:39;96042.31;;;7.23;63.79
39769;BME280;38939;47.824;14.642;2023-03-15T00:46:40;96035.53;;;7.22;63.58
39769;BME280;38939;47.824;14.642;2023-03-15T00:47:42;96038.91;;;7.22;63.15
39769;BME280;38939;47.824;14.642;2023-03-15T00:48:48;96039.91;;;7.21;62.53
39769;BME280;38939;47.824;14.642;2023-03-15T00:49:50;96039.91;;;7.21;63.97
39769;BME280;38939;47.824;14.642;2023-03-15T00:51:08;96042.50;;;7.21;64.00
39769;BME280;38939;47.824;14.642;2023-03-15T00:52:11;96041.31;;;7.24;63.40
39769;BME280;38939;47.824;14.642;2023-03-15T00:53:13;96047.50;;;7.23;64.01
39769;BME280;38939;47.824;14.642;2023-03-15T00:54:15;96049.47;;;7.21;64.25
39769;BME280;38939;47.824;14.642;2023-03-15T00:55:17;96051.47;;;7.19;65.46
39769;BME280;38939;47.824;14.642;2023-03-15T00:56:23;96059.47;;;7.17;65.69
39769;BME280;38939;47.824;14.642;2023-03-15T00:57:25;96053.69;;;7.15;65.69
39769;BME280;38939;47.824;14.642;2023-03-15T00:58:27;96061.47;;;7.15;66.56
39769;BME280;38939;47.824;14.642;2023-03-15T00:59:30;96055.47;;;7.15;66.29
39769;BME280;38939;47.824;14.642;2023-03-15T01:00:35;96064.88;;;7.16;65.53
39769;BME280;38939;47.824;14.642;2023-03-15T01:01:38;96065.47;;;7.18;66.89
39769;BME280;38939;47.824;14.642;2023-03-15T01:02:45;96060.06;;;7.13;67.45
39769;BME280;38939;47.824;14.642;2023-03-15T01:03:47;96058.28;;;7.07;68.17
39769;BME280;38939;47.824;14.642;2023-03-15T01:04:49;96061.28;;;7.04;68.57
39769;BME280;38939;47.824;14.642;2023-03-15T01:05:51;96064.06;;;7.02;68.96
39769;BME280;38939;47.824;14.642;2023-03-15T01:06:53;96066.47;;;7.04;68.69
39769;BME280;38939;47.824;14.642;2023-03-15T01:07:55;96065.06;;;7.08;67.77
39769;BME280;38939;47.824;14.642;2023-03-15T01:08:57;96055.88;;;7.12;68.79
39769;BME280;38939;47.824;14.642;2023-03-15T01:10:00;96058.88;;;7.15;68.21
39769;BME280;38939;47.824;14.642;2023-03-15T01:11:05;96058.47;;;7.18;67.27
39769;BME280;38939;47.824;14.642;2023-03-15T01:12:08;96055.88;;;7.18;68.70
39769;BME280;38939;47.824;14.642;2023-03-15T01:13:10;96050.88;;;7.17;68.87
39769;BME280;38939;47.824;14.642;2023-03-15T01:14:12;96053.47;;;7.17;69.68
39769;BME280;38939;47.824;14.642;2023-03-15T01:15:14;96044.09;;;7.16;69.47
39769;BME280;38939;47.824;14.642;2023-03-15T01:16:16;96043.91;;;7.11;69.21
39769;BME280;38939;47.824;14.642;2023-03-15T01:17:18;96049.31;;;7.09;69.87
39769;BME280;38939;47.824;14.642;2023-03-15T01:18:20;96049.69;;;7.06;69.23
39769;BME280;38939;47.824;14.642;2023-03-15T01:19:22;96050.72;;;7.05;69.19
39769;BME280;38939;47.824;14.642;2023-03-15T01:20:25;96044.50;;;7.06;68.66
39769;BME280;38939;47.824;14.642;2023-03-15T01:21:27;96044.91;;;7.10;69.53
39769;BME280;38939;47.824;14.642;2023-03-15T01:22:29;96040.50;;;7.10;68.67
39769;BME280;38939;47.824;14.642;2023-03-15T01:23:30;96041.31;;;7.11;68.00
39769;BME280;38939;47.824;14.642;2023-03-15T01:24:32;96040.72;;;7.09;69.01
39769;BME280;38939;47.824;14.642;2023-03-15T01:25:34;96037.53;;;7.07;69.64
39769;BME280;38939;47.824;14.642;2023-03-15T01:26:36;96036.53;;;7.08;68.34
39769;BME280;38939;47.824;14.642;2023-03-15T01:27:38;96042.31;;;7.10;68.55
39769;BME280;38939;47.824;14.642;2023-03-15T01:28:40;96034.72;;;7.08;69.39
39769;BME280;38939;47.824;14.642;2023-03-15T01:29:42;96031.97;;;7.03;70.19
39769;BME280;38939;47.824;14.642;2023-03-15T01:30:50;96044.09;;;7.03;69.32
39769;BME280;38939;47.824;14.642;2023-03-15T01:31:52;96041.94;;;6.99;69.21
39769;BME280;38939;47.824;14.642;2023-03-15T01:32:54;96043.94;;;6.97;69.67
39769;BME280;38939;47.824;14.642;2023-03-15T01:33:57;96038.31;;;7.00;69.26
39769;BME280;38939;47.824;14.642;2023-03-15T01:34:59;96032.16;;;7.01;69.74
39769;BME280;38939;47.824;14.642;2023-03-15T01:36:02;96029.94;;;6.98;69.28
39769;BME280;38939;47.824;14.642;2023-03-15T01:37:04;96031.56;;;6.93;69.23
39769;BME280;38939;47.824;14.642;2023-03-15T01:38:06;96033.16;;;6.94;70.06
39769;BME280;38939;47.824;14.642;2023-03-15T01:39:08;96035.94;;;6.92;70.25
39769;BME280;38939;47.824;14.642;2023-03-15T01:40:13;96034.94;;;6.93;70.02
39769;BME280;38939;47.824;14.642;2023-03-15T01:41:15;96031.94;;;6.96;70.62
39769;BME280;38939;47.824;14.642;2023-03-15T01:42:18;96027.94;;;7.00;70.43
39769;BME280;38939;47.824;14.642;2023-03-15T01:43:21;96026.19;;;7.01;70.46
39769;BME280;38939;47.824;14.642;2023-03-15T01:44:23;96029.56;;;7.01;70.53
39769;BME280;38939;47.824;14.642;2023-03-15T01:46:46;96019.56;;;6.98;71.17
39769;BME280;38939;47.824;14.642;2023-03-15T01:47:48;96018.41;;;7.01;70.77
39769;BME280;38939;47.824;14.642;2023-03-15T01:48:58;96015.81;;;7.01;70.74
39769;BME280;38939;47.824;14.642;2023-03-15T01:50:03;96019.38;;;7.00;71.54
39769;BME280;38939;47.824;14.642;2023-03-15T01:51:09;96021.38;;;6.91;71.32
39769;BME280;38939;47.824;14.642;2023-03-15T01:52:14;96022.38;;;6.84;71.86
39769;BME280;38939;47.824;14.642;2023-03-15T01:53:18;96023.16;;;6.84;70.83
39769;BME280;38939;47.824;14.642;2023-03-15T01:54:30;96026.56;;;6.85;71.36
39769;BME280;38939;47.824;14.642;2023-03-15T01:55:33;96028.56;;;6.89;71.15
39769;BME280;38939;47.824;14.642;2023-03-15T01:56:35;96028.97;;;6.93;70.67
39769;BME280;38939;47.824;14.642;2023-03-15T01:57:49;96026.75;;;6.96;70.94
39769;BME280;38939;47.824;14.642;2023-03-15T01:58:52;96031.56;;;6.99;71.19
39769;BME280;38939;47.824;14.642;2023-03-15T02:00:00;96028.78;;;7.01;71.27
39769;BME280;38939;47.824;14.642;2023-03-15T02:01:06;96035.72;;;7.00;72.43
39769;BME280;38939;47.824;14.642;2023-03-15T02:02:09;96041.13;;;6.99;71.47
39769;BME280;38939;47.824;14.642;2023-03-15T02:03:16;96035.53;;;7.02;71.33
39769;BME280;38939;47.824;14.642;2023-03-15T02:04:21;96031.97;;;7.03;71.25
39769;BME280;38939;47.824;14.642;2023-03-15T02:05:32;96034.75;;;7.01;71.83
39769;BME280;38939;47.824;14.642;2023-03-15T02:06:36;96032.34;;;7.00;71.80
39769;BME280;38939;47.824;14.642;2023-03-15T02:07:38;96033.13;;;7.00;72.06
39769;BME280;38939;47.824;14.642;2023-03-15T02:08:42;96042.72;;;7.00;72.06
39769;BME280;38939;47.824;14.642;2023-03-15T02:10:51;96036.16;;;6.97;70.97
39769;BME280;38939;47.824;14.642;2023-03-15T02:11:54;96047.50;;;6.96;70.19
39769;BME280;38939;47.824;14.642;2023-03-15T02:12:57;96048.31;;;6.97;70.91
39769;BME280;38939;47.824;14.642;2023-03-15T02:14:00;96060.88;;;6.93;69.75
39769;BME280;38939;47.824;14.642;2023-03-15T02:15:03;96056.69;;;6.92;69.60
39769;BME280;38939;47.824;14.642;2023-03-15T02:16:05;96060.88;;;6.93;70.23
39769;BME280;38939;47.824;14.642;2023-03-15T02:17:07;96050.91;;;6.90;70.38
39769;BME280;38939;47.824;14.642;2023-03-15T02:18:09;96065.25;;;6.86;70.69
39769;BME280;38939;47.824;14.642;2023-03-15T02:19:17;96063.47;;;6.80;71.94
39769;BME280;38939;47.824;14.642;2023-03-15T02:21:49;96070.03;;;6.82;70.83
39769;BME280;38939;47.824;14.642;2023-03-15T02:22:56;96071.47;;;6.85;70.69
39769;BME280;38939;47.824;14.642;2023-03-15T02:25:09;96078.44;;;6.91;70.58
39769;BME280;38939;47.824;14.642;2023-03-15T02:26:24;96085.19;;;6.92;71.09
39769;BME280;38939;47.824;14.642;2023-03-15T02:27:30;96066.06;;;6.93;70.76
39769;BME280;38939;47.824;14.642;2023-03-15T02:28:32;96053.09;;;6.93;70.62
39769;BME280;38939;47.824;14.642;2023-03-15T02:29:34;96061.47;;;6.95;70.00
39769;BME280;38939;47.824;14.642;2023-03-15T02:30:36;96058.88;;;6.95;70.51
39769;BME280;38939;47.824;14.642;2023-03-15T02:31:38;96059.47;;;6.97;70.44
39769;BME280;38939;47.824;14.642;2023-03-15T02:32:40;96062.88;;;6.98;70.75
39769;BME280;38939;47.824;14.642;2023-03-15T02:33:46;96065.06;;;6.94;70.55
39769;BME280;38939;47.824;14.642;2023-03-15T02:34:49;96076.44;;;6.93;69.54
39769;BME280;38939;47.824;14.642;2023-03-15T02:35:51;96077.84;;;6.89;68.61
39769;BME280;38939;47.824;14.642;2023-03-15T02:36:53;96076.41;;;6.87;69.81
39769;BME280;38939;47.824;14.642;2023-03-15T02:37:56;96075.81;;;6.85;69.76
39769;BME280;38939;47.824;14.642;2023-03-15T02:38:58;96072.25;;;6.86;69.26
39769;BME280;38939;47.824;14.642;2023-03-15T02:40:01;96069.84;;;6.84;68.52
39769;BME280;38939;47.824;14.642;2023-03-15T02:41:03;96070.84;;;6.83;69.01
39769;BME280;38939;47.824;14.642;2023-03-15T02:42:05;96076.22;;;6.81;68.70
39769;BME280;38939;47.824;14.642;2023-03-15T02:43:08;96074.63;;;6.80;68.62
39769;BME280;38939;47.824;14.642;2023-03-15T02:44:13;96071.84;;;6.82;68.51
39769;BME280;38939;47.824;14.642;2023-03-15T02:45:16;96078.63;;;6.83;68.49
39769;BME280;38939;47.824;14.642;2023-03-15T02:46:18;96077.03;;;6.82;68.10
39769;BME280;38939;47.824;14.642;2023-03-15T02:47:28;96076.41;;;6.80;67.35
39769;BME280;38939;47.824;14.642;2023-03-15T02:48:32;96079.63;;;6.82;68.50
39769;BME280;38939;47.824;14.642;2023-03-15T02:49:36;96077.03;;;6.82;67.50
39769;BME280;38939;47.824;14.642;2023-03-15T02:50:39;96079.63;;;6.82;67.63
39769;BME280;38939;47.824;14.642;2023-03-15T02:51:41;96076.63;;;6.85;68.25
39769;BME280;38939;47.824;14.642;2023-03-15T02:52:43;96075.63;;;6.86;68.20
39769;BME280;38939;47.824;14.642;2023-03-15T02:53:45;96081.59;;;6.87;67.73
39769;BME280;38939;47.824;14.642;2023-03-15T02:54:47;96084.00;;;6.88;67.43
39769;BME280;38939;47.824;14.642;2023-03-15T02:55:49;96082.19;;;6.89;68.04
39769;BME280;38939;47.824;14.642;2023-03-15T02:56:52;96073.81;;;6.87;67.87
39769;BME280;38939;47.824;14.642;2023-03-15T02:57:54;96073.63;;;6.88;67.18
39769;BME280;38939;47.824;14.642;2023-03-15T02:58:55;96077.03;;;6.89;67.22
39769;BME280;38939;47.824;14.642;2023-03-15T02:59:58;96083.63;;;6.91;67.54
39769;BME280;38939;47.824;14.642;2023-03-15T03:01:01;96086.00;;;6.86;67.62
39769;BME280;38939;47.824;14.642;2023-03-15T03:02:03;96087.00;;;6.85;66.85
39769;BME280;38939;47.824;14.642;2023-03-15T03:03:05;96086.19;;;6.85;66.89
39769;BME280;38939;47.824;14.642;2023-03-15T03:04:07;96089.38;;;6.87;67.33
39769;BME280;38939;47.824;14.642;2023-03-15T03:05:09;96089.97;;;6.89;67.89
39769;BME280;38939;47.824;14.642;2023-03-15T03:06:11;96092.78;;;6.87;67.92
39769;BME280;38939;47.824;14.642;2023-03-15T03:07:14;96082.44;;;6.87;68.39
39769;BME280;38939;47.824;14.642;2023-03-15T03:08:16;96079.84;;;6.87;68.08
39769;BME280;38939;47.824;14.642;2023-03-15T03:09:18;96072.06;;;6.87;67.54
39769;BME280;38939;47.824;14.642;2023-03-15T03:10:20;96077.03;;;6.82;67.18
39769;BME280;38939;47.824;14.642;2023-03-15T03:11:22;96074.63;;;6.80;66.40
39769;BME280;38939;47.824;14.642;2023-03-15T03:12:24;96077.63;;;6.77;66.18
39769;BME280;38939;47.824;14.642;2023-03-15T03:13:25;96076.22;;;6.75;66.22
39769;BME280;38939;47.824;14.642;2023-03-15T03:14:27;96079.81;;;6.74;66.66
39769;BME280;38939;47.824;14.642;2023-03-15T03:15:29;96084.63;;;6.77;67.19
39769;BME280;38939;47.824;14.642;2023-03-15T03:16:31;96085.59;;;6.76;66.06
39769;BME280;38939;47.824;14.642;2023-03-15T03:17:33;96087.59;;;6.74;66.22
39769;BME280;38939;47.824;14.642;2023-03-15T03:18:38;96082.22;;;6.69;64.65
39769;BME280;38939;47.824;14.642;2023-03-15T03:19:40;96082.22;;;6.69;65.71
39769;BME280;38939;47.824;14.642;2023-03-15T03:20:41;96077.41;;;6.66;65.18
39769;BME280;38939;47.824;14.642;2023-03-15T03:21:46;96083.38;;;6.66;65.86
39769;BME280;38939;47.824;14.642;2023-03-15T03:22:48;96085.59;;;6.63;64.74
39769;BME280;38939;47.824;14.642;2023-03-15T03:23:50;96080.78;;;6.59;64.21
39769;BME280;38939;47.824;14.642;2023-03-15T03:24:52;96088.38;;;6.61;65.05
39769;BME280;38939;47.824;14.642;2023-03-15T03:25:54;96073.81;;;6.60;64.29
39769;BME280;38939;47.824;14.642;2023-03-15T03:26:56;96085.78;;;6.61;65.01
39769;BME280;38939;47.824;14.642;2023-03-15T03:27:58;96070.59;;;6.58;65.32
39769;BME280;38939;47.824;14.642;2023-03-15T03:29:04;96077.00;;;6.55;64.55
39769;BME280;38939;47.824;14.642;2023-03-15T03:30:10;96080.56;;;6.54;64.51
39769;BME280;38939;47.824;14.642;2023-03-15T03:31:20;96087.72;;;6.52;65.23
39769;BME280;38939;47.824;14.642;2023-03-15T03:32:24;96081.38;;;6.55;65.51
39769;BME280;38939;47.824;14.642;2023-03-15T03:33:26;96090.94;;;6.54;65.26
39769;BME280;38939;47.824;14.642;2023-03-15T03:34:28;96086.94;;;6.52;65.16
39769;BME280;38939;47.824;14.642;2023-03-15T03:35:30;96086.53;;;6.48;65.31
39769;BME280;38939;47.824;14.642;2023-03-15T03:36:32;96090.50;;;6.44;65.53
39769;BME280;38939;47.824;14.642;2023-03-15T03:37:34;96096.88;;;6.41;64.63
39769;BME280;38939;47.824;14.642;2023-03-15T03:38:36;96090.91;;;6.41;65.58
39769;BME280;38939;47.824;14.642;2023-03-15T03:39:38;96090.50;;;6.44;65.37
39769;BME280;38939;47.824;14.642;2023-03-15T03:40:40;96094.31;;;6.41;64.77
39769;BME280;38939;47.824;14.642;2023-03-15T03:41:42;96095.31;;;6.40;65.17
39769;BME280;38939;47.824;14.642;2023-03-15T03:42:44;96096.09;;;6.41;65.63
39769;BME280;38939;47.824;14.642;2023-03-15T03:43:46;96093.69;;;6.39;66.26
39769;BME280;38939;47.824;14.642;2023-03-15T03:44:47;96090.91;;;6.34;66.81
39769;BME280;38939;47.824;14.642;2023-03-15T03:45:51;96093.09;;;6.31;68.02
39769;BME280;38939;47.824;14.642;2023-03-15T03:46:53;96099.47;;;6.28;68.27
39769;BME280;38939;47.824;14.642;2023-03-15T03:47:54;96094.47;;;6.27;68.75
39769;BME280;38939;47.824;14.642;2023-03-15T03:48:56;96105.19;;;6.24;68.74
39769;BME280;38939;47.824;14.642;2023-03-15T03:49:58;96100.03;;;6.24;68.78
39769;BME280;38939;47.824;14.642;2023-03-15T03:51:00;96110.78;;;6.20;69.82
39769;BME280;38939;47.824;14.642;2023-03-15T03:52:02;96105.78;;;6.19;70.02
39769;BME280;38939;47.824;14.642;2023-03-15T03:53:04;96113.53;;;6.12;70.21
39769;BME280;38939;47.824;14.642;2023-03-15T03:54:06;96119.09;;;6.09;70.37
39769;BME280;38939;47.824;14.642;2023-03-15T03:55:08;96124.69;;;6.13;70.30
39769;BME280;38939;47.824;14.642;2023-03-15T03:56:10;96126.09;;;6.15;69.90
39769;BME280;38939;47.824;14.642;2023-03-15T03:57:12;96129.47;;;6.16;69.65
39769;BME280;38939;47.824;14.642;2023-03-15T03:58:14;96126.69;;;6.11;70.46
39769;BME280;38939;47.824;14.642;2023-03-15T03:59:15;96125.81;;;5.97;70.49
39769;BME280;38939;47.824;14.642;2023-03-15T04:00:17;96126.59;;;5.97;71.33
39769;BME280;38939;47.824;14.642;2023-03-15T04:01:19;96121.63;;;5.96;71.49
39769;BME280;38939;47.824;14.642;2023-03-15T04:02:22;96119.75;;;5.90;71.48
39769;BME280;38939;47.824;14.642;2023-03-15T04:03:24;96119.38;;;5.86;71.00
39769;BME280;38939;47.824;14.642;2023-03-15T04:04:29;96130.75;;;5.92;72.36
39769;BME280;38939;47.824;14.642;2023-03-15T04:05:31;96128.97;;;5.92;72.84
39769;BME280;38939;47.824;14.642;2023-03-15T04:06:33;96126.19;;;5.94;72.94
39769;BME280;38939;47.824;14.642;2023-03-15T04:07:35;96128.16;;;5.92;72.99
39769;BME280;38939;47.824;14.642;2023-03-15T04:08:38;96123.22;;;5.97;73.18
39769;BME280;38939;47.824;14.642;2023-03-15T04:09:39;96124.63;;;5.99;73.56
39769;BME280;38939;47.824;14.642;2023-03-15T04:10:42;96119.44;;;5.99;73.60
39769;BME280;38939;47.824;14.642;2023-03-15T04:11:44;96128.22;;;5.98;72.96
39769;BME280;38939;47.824;14.642;2023-03-15T04:12:46;96123.66;;;6.00;73.58
39769;BME280;38939;47.824;14.642;2023-03-15T04:13:47;96128.03;;;6.00;73.40
39769;BME280;38939;47.824;14.642;2023-03-15T04:14:49;96124.25;;;6.03;73.49
39769;BME280;38939;47.824;14.642;2023-03-15T04:15:51;96127.44;;;5.98;72.24
39769;BME280;38939;47.824;14.642;2023-03-15T04:16:58;96132.22;;;6.01;72.66
39769;BME280;38939;47.824;14.642;2023-03-15T04:18:00;96136.53;;;5.94;72.63
39769;BME280;38939;47.824;14.642;2023-03-15T04:19:06;96135.69;;;5.87;74.12
39769;BME280;38939;47.824;14.642;2023-03-15T04:20:08;96139.25;;;5.86;73.87
39769;BME280;38939;47.824;14.642;2023-03-15T04:21:12;96143.63;;;5.85;73.85
39769;BME280;38939;47.824;14.642;2023-03-15T04:22:14;96141.84;;;5.86;74.39
39769;BME280;38939;47.824;14.642;2023-03-15T04:23:16;96145.84;;;5.88;74.50
39769;BME280;38939;47.824;14.642;2023-03-15T04:24:19;96148.06;;;5.91;73.58
39769;BME280;38939;47.824;14.642;2023-03-15T04:25:21;96151.88;;;5.95;73.89
39769;BME280;38939;47.824;14.642;2023-03-15T04:26:27;96154.09;;;5.98;74.00
39769;BME280;38939;47.824;14.642;2023-03-15T04:27:29;96153.09;;;5.99;74.30
39769;BME280;38939;47.824;14.642;2023-03-15T04:28:31;96151.84;;;5.89;75.03
39769;BME280;38939;47.824;14.642;2023-03-15T04:29:33;96156.22;;;5.88;74.92
39769;BME280;38939;47.824;14.642;2023-03-15T04:30:35;96156.00;;;5.90;74.37
39769;BME280;38939;47.824;14.642;2023-03-15T04:31:37;96155.22;;;5.89;75.45
39769;BME280;38939;47.824;14.642;2023-03-15T04:32:39;96158.38;;;5.85;76.04
39769;BME280;38939;47.824;14.642;2023-03-15T04:33:43;96153.38;;;5.83;76.56
39769;BME280;38939;47.824;14.642;2023-03-15T04:34:44;96154.38;;;5.82;77.31
39769;BME280;38939;47.824;14.642;2023-03-15T04:35:51;96162.69;;;5.77;76.60
39769;BME280;38939;47.824;14.642;2023-03-15T04:36:53;96175.28;;;5.80;76.26
39769;BME280;38939;47.824;14.642;2023-03-15T04:37:56;96171.69;;;5.81;77.40
39769;BME280;38939;47.824;14.642;2023-03-15T04:38:58;96167.06;;;5.70;78.22
39769;BME280;38939;47.824;14.642;2023-03-15T04:40:05;96169.00;;;5.61;78.21
39769;BME280;38939;47.824;14.642;2023-03-15T04:41:07;96170.91;;;5.53;78.67
39769;BME280;38939;47.824;14.642;2023-03-15T04:42:11;96167.34;;;5.54;78.49
39769;BME280;38939;47.824;14.642;2023-03-15T04:43:13;96173.34;;;5.61;78.78
39769;BME280;38939;47.824;14.642;2023-03-15T04:44:15;96172.91;;;5.57;78.45
39769;BME280;38939;47.824;14.642;2023-03-15T04:45:17;96179.19;;;5.41;77.35
39769;BME280;38939;47.824;14.642;2023-03-15T04:46:19;96183.97;;;5.45;77.82
39769;BME280;38939;47.824;14.642;2023-03-15T04:47:22;96181.66;;;5.50;78.15
39769;BME280;38939;47.824;14.642;2023-03-15T04:48:24;96180.47;;;5.52;78.76
39769;BME280;38939;47.824;14.642;2023-03-15T04:49:25;96188.84;;;5.54;78.85
39769;BME280;38939;47.824;14.642;2023-03-15T04:50:28;96178.09;;;5.57;79.50
39769;BME280;38939;47.824;14.642;2023-03-15T04:51:30;96186.06;;;5.56;80.16
39769;BME280;38939;47.824;14.642;2023-03-15T04:52:34;96177.09;;;5.52;80.55
39769;BME280;38939;47.824;14.642;2023-03-15T04:53:36;96192.16;;;5.48;79.82
39769;BME280;38939;47.824;14.642;2023-03-15T04:54:40;96194.75;;;5.48;80.01
39769;BME280;38939;47.824;14.642;2023-03-15T04:55:42;96194.75;;;5.48;79.81
39769;BME280;38939;47.824;14.642;2023-03-15T04:56:43;96192.34;;;5.47;79.13
39769;BME280;38939;47.824;14.642;2023-03-15T04:57:45;96191.13;;;5.43;79.05
39769;BME280;38939;47.824;14.642;2023-03-15T04:58:47;96194.50;;;5.43;79.30
39769;BME280;38939;47.824;14.642;2023-03-15T04:59:49;96193.97;;;5.48;78.83
39769;BME280;38939;47.824;14.642;2023-03-15T05:00:51;96182.41;;;5.44;78.83
39769;BME280;38939;47.824;14.642;2023-03-15T05:01:53;96192.31;;;5.40;78.59
39769;BME280;38939;47.824;14.642;2023-03-15T05:02:55;96202.03;;;5.38;79.43
39769;BME280;38939;47.824;14.642;2023-03-15T05:03:58;96202.66;;;5.40;79.31
39769;BME280;38939;47.824;14.642;2023-03-15T05:05:00;96207.03;;;5.39;79.31
39769;BME280;38939;47.824;14.642;2023-03-15T05:06:01;96208.25;;;5.44;79.16
39769;BME280;38939;47.824;14.642;2023-03-15T05:07:08;96201.47;;;5.43;78.99
39769;BME280;38939;47.824;14.642;2023-03-15T05:08:10;96210.84;;;5.44;79.42
39769;BME280;38939;47.824;14.642;2023-03-15T05:09:12;96214.66;;;5.48;79.45
39769;BME280;38939;47.824;14.642;2023-03-15T05:10:19;96213.66;;;5.49;79.45
39769;BME280;38939;47.824;14.642;2023-03-15T05:11:21;96213.66;;;5.49;79.31
39769;BME280;38939;47.824;14.642;2023-03-15T05:12:23;96211.69;;;5.51;78.40
39769;BME280;38939;47.824;14.642;2023-03-15T05:13:25;96220.25;;;5.51;78.48
39769;BME280;38939;47.824;14.642;2023-03-15T05:14:27;96223.66;;;5.52;78.75
39769;BME280;38939;47.824;14.642;2023-03-15T05:15:29;96224.44;;;5.52;79.04
39769;BME280;38939;47.824;14.642;2023-03-15T05:16:31;96220.69;;;5.55;79.36
39769;BME280;38939;47.824;14.642;2023-03-15T05:17:32;96227.41;;;5.49;78.79
39769;BME280;38939;47.824;14.642;2023-03-15T05:18:34;96228.22;;;5.50;79.16
39769;BME280;38939;47.824;14.642;2023-03-15T05:19:36;96234.19;;;5.50;79.13
39769;BME280;38939;47.824;14.642;2023-03-15T05:20:38;96237.22;;;5.54;79.07
39769;BME280;38939;47.824;14.642;2023-03-15T05:21:40;96234.22;;;5.57;78.83
39769;BME280;38939;47.824;14.642;2023-03-15T05:22:42;96233.25;;;5.58;79.50
39769;BME280;38939;47.824;14.642;2023-03-15T05:23:44;96239.59;;;5.55;79.20
39769;BME280;38939;47.824;14.642;2023-03-15T05:24:45;96242.38;;;5.54;78.98
39769;BME280;38939;47.824;14.642;2023-03-15T05:25:49;96246.19;;;5.58;79.61
39769;BME280;38939;47.824;14.642;2023-03-15T05:26:54;96244.59;;;5.57;79.48
39769;BME280;38939;47.824;14.642;2023-03-15T05:27:56;96248.59;;;5.59;79.24
39769;BME280;38939;47.824;14.642;2023-03-15T05:28:58;96243.59;;;5.58;80.04
39769;BME280;38939;47.824;14.642;2023-03-15T05:30:00;96239.78;;;5.54;80.23
39769;BME280;38939;47.824;14.642;2023-03-15T05:31:04;96243.97;;;5.55;79.45
39769;BME280;38939;47.824;14.642;2023-03-15T05:32:06;96237.00;;;5.55;80.01
39769;BME280;38939;47.824;14.642;2023-03-15T05:33:08;96238.78;;;5.55;80.03
39769;BME280;38939;47.824;14.642;2023-03-15T05:34:10;96246.13;;;5.51;80.10
39769;BME280;38939;47.824;14.642;2023-03-15T05:35:12;96245.72;;;5.48;80.48
39769;BME280;38939;47.824;14.642;2023-03-15T05:36:14;96240.91;;;5.45;81.27
39769;BME280;38939;47.824;14.642;2023-03-15T05:37:16;96251.63;;;5.41;80.98
39769;BME280;38939;47.824;14.642;2023-03-15T05:38:18;96248.44;;;5.39;81.41